createdAt,value
2018-06-08T05:16:44.810Z,14.70
2018-06-08T05:19:13.100Z,15.80
2018-06-08T05:21:41.290Z,14.30
2018-06-08T05:24:09.380Z,13.43
2018-06-08T05:26:37.580Z,12.70
2018-06-08T05:29:06.272Z,14.40
2018-06-08T05:31:34.460Z,11.47
2018-06-08T05:34:02.559Z,15.43
2018-06-08T05:36:30.754Z,13.63
2018-06-08T05:38:58.836Z,16.40
2018-06-08T05:41:27.159Z,17.93
2018-06-08T05:43:55.385Z,16.60
2018-06-08T05:49:12.728Z,13.37
2018-06-08T05:51:41.086Z,14.23
2018-06-08T05:54:09.399Z,15.40
2018-06-08T05:56:37.719Z,16.23
2018-06-08T05:59:06.017Z,14.23
2018-06-08T06:01:34.261Z,15.13
2018-06-08T06:04:02.553Z,13.37
2018-06-08T06:06:31.141Z,13.17
2018-06-08T06:08:59.360Z,14.70
2018-06-08T06:11:27.513Z,12.17
2018-06-08T06:13:56.065Z,9.30
2018-06-08T06:16:24.153Z,10.03
2018-06-08T06:18:52.420Z,9.73
2018-06-08T06:21:20.893Z,10.17
2018-06-08T06:23:49.273Z,10.35
2018-06-08T06:26:17.563Z,10.60
2018-06-08T06:28:45.642Z,10.43
2018-06-08T06:31:13.998Z,10.00
2018-06-08T06:33:42.261Z,11.30
2018-06-08T06:36:11.025Z,10.43
2018-06-08T06:38:39.281Z,10.50
2018-06-08T06:41:07.608Z,9.43
2018-06-08T06:43:35.703Z,10.07
2018-06-08T06:46:04.029Z,10.50
2018-06-08T06:48:32.205Z,10.05
2018-06-08T06:51:00.269Z,9.13
2018-06-08T06:53:28.404Z,10.95
2018-06-08T06:55:56.876Z,11.73
2018-06-08T06:58:25.205Z,10.30
2018-06-08T07:00:53.296Z,11.93
2018-06-08T07:03:21.457Z,16.13
2018-06-08T07:05:49.553Z,15.33
2018-06-08T07:08:17.635Z,17.63
2018-06-08T07:10:45.720Z,17.47
2018-06-08T07:13:14.128Z,17.90
2018-06-08T07:15:42.321Z,17.43
2018-06-08T07:18:10.404Z,16.20
2018-06-08T07:20:38.487Z,16.87
2018-06-08T07:23:06.749Z,15.27
2018-06-08T07:25:45.324Z,15.32
2018-06-08T07:28:13.443Z,15.13
2018-06-08T07:39:29.749Z,17.33
2018-06-08T07:41:58.013Z,15.87
2018-06-08T07:44:26.292Z,16.90
2018-06-08T07:46:54.856Z,17.67
2018-06-08T07:49:22.992Z,16.50
2018-06-08T07:51:51.703Z,15.23
2018-06-08T07:54:23.519Z,16.00
2018-06-08T07:56:51.599Z,18.80
2018-06-08T07:59:19.720Z,20.08
2018-06-08T08:01:47.861Z,16.80
2018-06-08T08:04:15.987Z,14.27
2018-06-08T08:12:11.174Z,9.80
2018-06-08T08:14:39.448Z,13.10
2018-06-08T08:17:07.521Z,13.37
2018-06-08T08:19:35.797Z,12.70
2018-06-08T08:22:04.167Z,13.22
2018-06-08T08:24:32.292Z,11.60
2018-06-08T08:27:01.341Z,11.50
2018-06-08T08:29:29.409Z,9.30
2018-06-08T08:31:57.536Z,10.70
2018-06-08T08:34:25.642Z,10.30
2018-06-08T08:36:53.737Z,12.00
2018-06-08T08:39:21.816Z,10.50
2018-06-08T08:41:49.892Z,13.07
2018-06-08T08:47:21.031Z,16.33
2018-06-08T08:49:49.399Z,12.20
2018-06-08T08:52:17.480Z,14.10
2018-06-08T08:54:45.582Z,13.20
2018-06-08T08:57:13.680Z,17.92
2018-06-08T08:59:41.779Z,11.20
2018-06-08T09:02:09.872Z,12.28
2018-06-08T09:04:38.012Z,11.30
2018-06-08T09:07:06.108Z,10.53
2018-06-08T09:09:34.256Z,13.13
2018-06-08T09:12:02.370Z,11.00
2018-06-08T09:14:31.087Z,11.60
2018-06-08T09:16:59.292Z,10.05
2018-06-08T09:19:27.412Z,10.50
2018-06-08T09:21:55.709Z,10.50
2018-06-08T09:24:24.974Z,8.50
2018-06-08T09:26:53.169Z,8.80
2018-06-08T09:29:21.292Z,10.00
2018-06-08T09:31:49.367Z,9.43
2018-06-08T09:34:17.532Z,10.53
2018-06-08T09:36:45.632Z,10.57
2018-06-08T09:39:14.245Z,10.57
2018-06-08T09:41:42.340Z,10.90
2018-06-08T09:44:11.412Z,11.60
2018-06-08T09:46:40.405Z,9.60
2018-06-08T09:49:08.568Z,10.63
2018-06-08T09:51:37.848Z,12.40
2018-06-08T09:54:05.913Z,9.73
2018-06-08T09:56:34.041Z,9.93
2018-06-08T09:59:02.368Z,10.47
2018-06-08T10:01:30.516Z,11.17
2018-06-08T10:03:59.227Z,11.73
2018-06-08T10:06:27.329Z,11.47
2018-06-08T10:08:55.433Z,12.93
2018-06-08T10:11:23.547Z,12.13
2018-06-08T10:13:51.820Z,12.47
2018-06-08T10:16:19.948Z,11.40
2018-06-08T10:18:48.028Z,10.00
2018-06-08T10:21:16.364Z,9.07
2018-06-08T10:23:44.451Z,8.28
2018-06-08T10:26:13.615Z,9.63
2018-06-08T10:28:41.708Z,9.93
2018-06-08T10:31:09.804Z,8.13
2018-06-08T10:33:37.967Z,9.30
2018-06-08T10:36:06.201Z,8.10
2018-06-08T10:38:34.429Z,9.87
2018-06-08T10:41:02.516Z,8.97
2018-06-08T10:43:30.643Z,8.83
2018-06-08T10:45:58.808Z,10.40
2018-06-08T10:48:26.960Z,10.35
2018-06-08T10:50:55.037Z,9.47
2018-06-08T10:53:23.109Z,10.53
2018-06-08T10:55:52.008Z,9.73
2018-06-08T10:58:20.239Z,9.13
2018-06-08T11:00:48.531Z,10.17
2018-06-08T11:03:16.613Z,9.98
2018-06-08T11:05:44.675Z,9.80
2018-06-08T11:08:13.000Z,9.23
2018-06-08T11:10:41.095Z,8.50
2018-06-08T11:13:09.340Z,9.37
2018-06-08T11:15:37.425Z,7.90
2018-06-08T11:18:05.652Z,9.48
2018-06-08T11:20:33.731Z,9.48
2018-06-08T11:23:01.820Z,10.33
2018-06-08T11:25:29.945Z,10.05
2018-06-08T11:27:58.380Z,8.87
2018-06-08T11:30:26.498Z,8.90
2018-06-08T11:32:55.394Z,9.10
2018-06-08T11:35:23.484Z,9.37
2018-06-08T11:37:51.614Z,9.20
2018-06-08T11:40:19.992Z,17.60
2018-06-08T11:42:48.076Z,8.73
2018-06-08T11:45:16.147Z,8.57
2018-06-08T11:47:44.284Z,9.30
2018-06-08T11:50:12.425Z,7.87
2018-06-08T11:52:40.505Z,8.90
2018-06-08T11:55:08.643Z,8.37
2018-06-08T11:57:36.718Z,9.23
2018-06-08T12:00:05.065Z,9.43
2018-06-08T12:02:33.232Z,8.20
2018-06-08T12:05:02.259Z,8.55
2018-06-08T12:07:30.537Z,12.13
2018-06-08T12:09:58.699Z,8.47
2018-06-08T12:12:27.118Z,7.90
2018-06-08T12:14:55.241Z,7.90
2018-06-08T12:17:23.340Z,8.40
2018-06-08T12:19:51.752Z,8.47
2018-06-08T12:22:19.920Z,9.37
2018-06-08T12:24:48.748Z,8.83
2018-06-08T12:27:17.185Z,9.30
2018-06-08T12:29:45.263Z,9.40
2018-06-08T12:32:13.432Z,10.35
2018-06-08T12:34:41.552Z,11.10
2018-06-08T12:37:11.055Z,10.23
2018-06-08T12:39:39.196Z,11.77
2018-06-08T12:42:07.269Z,10.57
2018-06-08T12:44:35.356Z,7.90
2018-06-08T12:47:03.817Z,9.10
2018-06-08T12:49:32.300Z,8.90
2018-06-08T12:52:00.446Z,9.85
2018-06-08T12:54:28.825Z,10.15
2018-06-08T12:56:56.903Z,8.60
2018-06-08T12:59:25.055Z,8.17
2018-06-08T13:01:53.213Z,9.83
2018-06-08T13:04:21.345Z,9.50
2018-06-08T13:06:49.429Z,8.67
2018-06-08T13:09:17.560Z,9.50
2018-06-08T13:11:45.714Z,9.97
2018-06-08T13:14:13.810Z,9.00
2018-06-08T13:16:41.892Z,9.80
2018-06-08T13:19:10.097Z,9.70
2018-06-08T13:21:38.176Z,9.08
2018-06-08T13:24:06.613Z,9.25
2018-06-08T13:26:34.692Z,9.13
2018-06-08T13:29:02.831Z,9.87
2018-06-08T13:31:31.016Z,8.40
2018-06-08T13:33:59.149Z,11.80
2018-06-08T13:36:27.228Z,11.33
2018-06-08T13:38:55.304Z,9.93
2018-06-08T13:41:23.602Z,12.00
2018-06-08T13:43:51.744Z,11.28
2018-06-08T13:49:11.391Z,10.87
2018-06-08T13:51:39.520Z,11.97
2018-06-08T13:54:07.672Z,11.17
2018-06-08T13:56:35.743Z,8.83
2018-06-08T13:59:03.844Z,10.40
2018-06-08T14:01:32.073Z,9.97
2018-06-08T14:04:00.180Z,9.40
2018-06-08T14:06:28.284Z,11.20
2018-06-08T14:08:56.355Z,10.43
2018-06-08T14:11:24.448Z,10.40
2018-06-08T14:13:52.540Z,9.60
2018-06-08T14:16:20.691Z,11.40
2018-06-08T14:18:49.541Z,8.93
2018-06-08T14:21:17.720Z,11.20
2018-06-08T14:23:45.796Z,9.83
2018-06-08T14:26:14.020Z,10.93
2018-06-08T14:28:42.106Z,11.33
2018-06-08T14:31:10.176Z,10.00
2018-06-08T14:33:38.289Z,9.03
2018-06-08T14:36:06.394Z,8.77
2018-06-08T14:38:34.476Z,9.43
2018-06-08T14:41:02.695Z,10.03
2018-06-08T14:43:30.809Z,9.60
2018-06-08T14:45:58.896Z,9.77
2018-06-08T14:48:27.073Z,9.77
2018-06-08T14:50:55.367Z,8.80
2018-06-08T14:53:23.721Z,10.70
2018-06-08T14:55:51.884Z,9.90
2018-06-08T14:58:20.019Z,8.37
2018-06-08T15:00:48.104Z,9.17
2018-06-08T15:03:16.276Z,13.43
2018-06-08T15:05:44.364Z,10.03
2018-06-08T15:08:12.531Z,10.23
2018-06-08T15:10:40.604Z,9.40
2018-06-08T15:13:08.680Z,8.97
2018-06-08T15:15:37.545Z,8.53
2018-06-08T15:18:05.631Z,7.50
2018-06-08T15:20:33.707Z,8.77
2018-06-08T15:23:01.939Z,8.43
2018-06-08T15:25:29.984Z,8.53
2018-06-08T15:27:58.122Z,8.00
2018-06-08T15:30:26.225Z,10.27
2018-06-08T15:32:54.351Z,8.13
2018-06-08T15:35:22.508Z,9.40
2018-06-08T15:37:50.588Z,9.93
2018-06-08T15:40:18.724Z,9.10
2018-06-08T15:42:46.854Z,8.83
2018-06-08T15:45:14.951Z,8.10
2018-06-08T15:47:44.005Z,8.77
2018-06-08T15:50:12.069Z,7.80
2018-06-08T15:52:40.243Z,8.20
2018-06-08T15:55:08.830Z,8.33
2018-06-08T15:57:37.148Z,9.37
2018-06-08T16:00:05.357Z,9.23
2018-06-08T16:02:33.447Z,9.60
2018-06-08T16:05:01.505Z,8.60
2018-06-08T16:07:30.289Z,10.20
2018-06-08T16:09:58.529Z,8.87
2018-06-08T16:12:26.623Z,8.00
2018-06-08T16:14:54.695Z,9.03
2018-06-08T16:17:22.789Z,9.30
2018-06-08T16:19:51.069Z,9.77
2018-06-08T16:22:19.247Z,9.90
2018-06-08T16:24:47.323Z,9.10
2018-06-08T16:27:15.430Z,9.10
2018-06-08T16:29:43.533Z,8.70
2018-06-08T16:32:11.860Z,8.67
2018-06-08T16:34:40.415Z,10.25
2018-06-08T16:37:08.516Z,10.20
2018-06-08T16:39:36.591Z,9.83
2018-06-08T16:42:04.683Z,10.63
2018-06-08T16:44:32.813Z,11.53
2018-06-08T16:47:01.120Z,12.43
2018-06-08T16:49:29.262Z,9.77
2018-06-08T16:51:57.433Z,10.13
2018-06-08T16:54:25.523Z,10.32
2018-06-08T16:56:53.661Z,10.05
2018-06-08T16:59:22.447Z,9.13
2018-06-08T17:01:50.568Z,9.67
2018-06-08T17:04:18.662Z,12.47
2018-06-08T17:06:46.759Z,10.07
2018-06-08T17:09:14.967Z,10.93
2018-06-08T17:11:43.280Z,10.57
2018-06-08T17:14:11.440Z,9.65
2018-06-08T17:16:39.566Z,12.03
2018-06-08T17:19:08.136Z,10.40
2018-06-08T17:21:36.254Z,9.27
2018-06-08T17:24:04.344Z,10.97
2018-06-08T17:26:32.452Z,10.13
2018-06-08T17:29:00.640Z,10.03
2018-06-08T17:31:28.938Z,10.20
2018-06-08T17:33:57.025Z,10.25
2018-06-08T17:36:25.111Z,10.27
2018-06-08T17:38:53.192Z,10.40
2018-06-08T17:41:21.363Z,9.85
2018-06-08T17:43:49.489Z,6.17
2018-06-08T17:46:17.569Z,5.70
2018-06-08T17:48:45.696Z,6.07
2018-06-08T17:51:13.763Z,5.37
2018-06-08T17:53:42.950Z,9.23
2018-06-08T17:56:11.198Z,9.10
2018-06-08T17:58:39.454Z,7.80
2018-06-08T18:01:09.191Z,12.20
2018-06-08T18:03:37.248Z,6.60
2018-06-08T18:06:05.610Z,7.00
2018-06-08T18:08:33.854Z,6.50
2018-06-08T18:11:01.924Z,7.33
2018-06-08T18:13:30.074Z,9.80
2018-06-08T18:15:58.141Z,7.57
2018-06-08T18:18:26.217Z,6.25
2018-06-08T18:20:54.284Z,5.93
2018-06-08T18:23:22.384Z,6.37
2018-06-08T18:25:50.492Z,6.00
2018-06-08T18:28:18.566Z,6.57
2018-06-08T18:30:46.676Z,6.73
2018-06-08T18:33:14.776Z,5.50
2018-06-08T18:35:42.885Z,6.60
2018-06-08T18:38:10.948Z,6.80
2018-06-08T18:40:39.104Z,6.57
2018-06-08T18:43:07.228Z,6.00
2018-06-08T18:45:35.474Z,7.80
2018-06-08T18:48:03.557Z,6.77
2018-06-08T18:50:31.695Z,7.07
2018-06-08T18:52:59.778Z,7.70
2018-06-08T18:55:27.864Z,7.45
2018-06-08T18:57:55.960Z,6.73
2018-06-08T19:00:24.072Z,8.08
2018-06-08T19:02:52.136Z,7.17
2018-06-08T19:05:21.120Z,5.62
2018-06-08T19:07:49.196Z,7.17
2018-06-08T19:10:17.276Z,7.30
2018-06-08T19:12:45.766Z,7.70
2018-06-08T19:15:13.951Z,6.90
2018-06-08T19:17:42.129Z,7.83
2018-06-08T19:20:10.109Z,7.20
2018-06-08T19:22:38.243Z,8.10
2018-06-08T19:25:06.319Z,7.70
2018-06-08T19:27:34.442Z,7.13
2018-06-08T19:30:02.565Z,12.53
2018-06-08T19:32:30.656Z,7.37
2018-06-08T19:34:58.728Z,7.23
2018-06-08T19:37:26.802Z,7.00
2018-06-08T19:39:54.882Z,9.05
2018-06-08T19:42:23.698Z,8.53
2018-06-08T19:44:51.776Z,7.70
2018-06-08T19:47:20.154Z,8.53
2018-06-08T19:49:48.267Z,9.00
2018-06-08T19:52:17.414Z,9.27
2018-06-08T19:54:45.670Z,9.77
2018-06-08T19:57:13.969Z,8.87
2018-06-08T19:59:42.048Z,10.17
2018-06-08T20:02:10.118Z,7.73
2018-06-08T20:04:38.554Z,14.33
2018-06-08T20:07:06.641Z,11.60
2018-06-08T20:09:36.860Z,10.40
2018-06-08T20:12:04.932Z,11.20
2018-06-08T20:14:33.020Z,10.37
2018-06-08T20:17:01.124Z,10.73
2018-06-08T20:19:29.234Z,13.60
2018-06-08T20:21:57.618Z,12.60
2018-06-08T20:24:25.709Z,9.70
2018-06-08T20:26:54.002Z,9.58
2018-06-08T20:29:22.374Z,12.10
2018-06-08T20:31:51.214Z,12.53
2018-06-08T20:34:19.297Z,9.97
2018-06-08T20:36:47.688Z,12.00
2018-06-08T20:39:15.756Z,10.43
2018-06-08T20:44:33.441Z,12.20
2018-06-08T20:47:01.780Z,10.38
2018-06-08T20:49:30.512Z,11.07
2018-06-08T20:51:59.243Z,15.13
2018-06-08T21:46:11.143Z,10.03
2018-06-08T21:48:39.264Z,15.17
2018-06-08T21:51:07.344Z,11.00
2018-06-08T21:53:35.496Z,12.85
2018-06-08T21:56:03.675Z,12.30
2018-06-08T21:58:31.772Z,13.95
2018-06-08T22:24:04.089Z,12.60
2018-06-08T22:26:32.379Z,16.55
2018-06-08T22:29:00.547Z,11.90
2018-06-08T22:31:28.894Z,14.43
2018-06-08T22:33:57.089Z,14.30
2018-06-08T22:36:25.568Z,14.33
2018-06-08T22:38:53.900Z,14.90
2018-06-08T22:41:22.124Z,15.23
2018-06-08T22:43:50.278Z,14.27
2018-06-08T22:46:18.434Z,16.53
2018-06-08T22:48:48.063Z,13.00
2018-06-08T22:51:16.234Z,13.30
2018-06-08T22:53:44.431Z,13.50
2018-06-08T22:56:12.713Z,12.17
2018-06-08T22:58:40.905Z,14.35
2018-06-08T23:01:09.300Z,14.00
2018-06-08T23:03:38.480Z,16.23
2018-06-08T23:06:07.589Z,12.00
2018-06-08T23:08:35.908Z,13.30
2018-06-08T23:11:04.154Z,15.27
2018-06-08T23:13:32.696Z,13.17
2018-06-08T23:16:00.973Z,14.37
2018-06-08T23:18:29.177Z,14.30
2018-06-08T23:20:57.692Z,14.23
2018-06-08T23:23:26.622Z,14.67
2018-06-08T23:25:54.859Z,14.20
2018-06-08T23:28:23.070Z,17.93
2018-06-08T23:30:51.292Z,14.93
2018-06-08T23:33:19.657Z,16.23
2018-06-08T23:35:54.318Z,14.43
2018-06-08T23:38:23.706Z,15.20
2018-06-08T23:40:51.848Z,15.80
2018-06-08T23:43:20.020Z,15.33
2018-06-08T23:45:48.308Z,17.10
2018-06-08T23:48:16.522Z,16.20
2018-06-08T23:50:44.708Z,17.42
2018-06-08T23:53:41.644Z,17.60
2018-06-08T23:56:09.780Z,17.77
2018-06-08T23:58:37.970Z,17.50
